sensor_id;sensor_type;location;lat;lon;timestamp;pressure;altitude;pressure_sealevel;temperature;humidity
15074;BME280;7636;63.884;20.308;2023-06-22T00:01:20;64215.72;;;15.80;100.00
15074;BME280;7636;63.884;20.308;2023-06-22T00:03:47;64220.81;;;15.87;100.00
15074;BME280;7636;63.884;20.308;2023-06-22T00:06:14;64213.63;;;15.80;100.00
15074;BME280;7636;63.884;20.308;2023-06-22T00:08:41;64207.13;;;15.77;100.00
15074;BME280;7636;63.884;20.308;2023-06-22T00:11:08;64207.91;;;15.70;100.00
15074;BME280;7636;63.884;20.308;2023-06-22T00:13:35;64207.91;;;15.70;100.00
15074;BME280;7636;63.884;20.308;2023-06-22T00:16:01;64175.97;;;15.43;100.00
15074;BME280;7636;63.884;20.308;2023-06-22T00:18:28;64133.06;;;15.07;100.00
15074;BME280;7636;63.884;20.308;2023-06-22T00:20:57;64148.94;;;15.19;100.00
15074;BME280;7636;63.884;20.308;2023-06-22T00:23:25;64151.38;;;15.26;100.00
15074;BME280;7636;63.884;20.308;2023-06-22T00:25:52;64126.13;;;15.05;100.00
15074;BME280;7636;63.884;20.308;2023-06-22T00:28:19;64157.44;;;15.31;100.00
15074;BME280;7636;63.884;20.308;2023-06-22T00:30:48;64152.91;;;15.25;100.00
15074;BME280;7636;63.884;20.308;2023-06-22T00:33:15;64146.75;;;15.17;100.00
15074;BME280;7636;63.884;20.308;2023-06-22T00:35:43;64154.91;;;15.22;100.00
15074;BME280;7636;63.884;20.308;2023-06-22T00:38:11;64145.22;;;15.18;100.00
15074;BME280;7636;63.884;20.308;2023-06-22T00:40:37;64140.13;;;15.11;100.00
15074;BME280;7636;63.884;20.308;2023-06-22T00:43:05;64133.06;;;15.07;100.00
15074;BME280;7636;63.884;20.308;2023-06-22T00:45:32;64120.84;;;14.93;100.00
15074;BME280;7636;63.884;20.308;2023-06-22T00:47:59;64117.09;;;14.92;100.00
15074;BME280;7636;63.884;20.308;2023-06-22T00:50:29;64114.78;;;14.87;100.00
15074;BME280;7636;63.884;20.308;2023-06-22T00:53:05;64113.09;;;14.86;100.00
15074;BME280;7636;63.884;20.308;2023-06-22T00:55:45;64078.06;;;14.59;100.00
15074;BME280;7636;63.884;20.308;2023-06-22T00:58:18;64099.88;;;14.74;100.00
15074;BME280;7636;63.884;20.308;2023-06-22T01:00:48;64103.75;;;14.77;100.00
15074;BME280;7636;63.884;20.308;2023-06-22T01:03:15;64099.03;;;14.78;100.00
15074;BME280;7636;63.884;20.308;2023-06-22T01:05:44;64096.03;;;14.70;100.00
15074;BME280;7636;63.884;20.308;2023-06-22T01:11:25;64100.09;;;14.79;100.00
15074;BME280;7636;63.884;20.308;2023-06-22T01:16:30;64091.50;;;14.64;100.00
15074;BME280;7636;63.884;20.308;2023-06-22T01:19:00;64080.59;;;14.56;100.00
15074;BME280;7636;63.884;20.308;2023-06-22T01:21:28;64091.41;;;14.73;100.00
15074;BME280;7636;63.884;20.308;2023-06-22T01:24:17;64105.53;;;14.81;100.00
15074;BME280;7636;63.884;20.308;2023-06-22T01:29:26;64098.88;;;14.75;100.00
15074;BME280;7636;63.884;20.308;2023-06-22T01:31:54;64108.81;;;14.84;100.00
15074;BME280;7636;63.884;20.308;2023-06-22T01:34:23;64106.59;;;14.82;100.00
15074;BME280;7636;63.884;20.308;2023-06-22T01:36:51;64082.91;;;14.61;100.00
15074;BME280;7636;63.884;20.308;2023-06-22T01:39:19;64061.44;;;14.41;100.00
15074;BME280;7636;63.884;20.308;2023-06-22T01:41:47;64083.47;;;14.61;100.00
15074;BME280;7636;63.884;20.308;2023-06-22T01:44:14;64088.31;;;14.63;100.00
15074;BME280;7636;63.884;20.308;2023-06-22T01:46:42;64084.56;;;14.62;100.00
15074;BME280;7636;63.884;20.308;2023-06-22T01:49:08;64122.50;;;14.94;100.00
15074;BME280;7636;63.884;20.308;2023-06-22T01:51:35;64118.97;;;14.98;100.00
15074;BME280;7636;63.884;20.308;2023-06-22T01:54:02;64129.97;;;14.96;100.00
15074;BME280;7636;63.884;20.308;2023-06-22T01:56:29;64128.66;;;15.02;100.00
15074;BME280;7636;63.884;20.308;2023-06-22T01:59:13;64109.91;;;14.85;100.00
15074;BME280;7636;63.884;20.308;2023-06-22T02:01:44;64113.09;;;14.86;100.00
15074;BME280;7636;63.884;20.308;2023-06-22T02:04:20;64133.75;;;15.10;100.00
15074;BME280;7636;63.884;20.308;2023-06-22T02:06:49;64141.88;;;15.15;100.00
15074;BME280;7636;63.884;20.308;2023-06-22T02:09:19;64131.00;;;15.07;100.00
15074;BME280;7636;63.884;20.308;2023-06-22T02:11:48;64150.63;;;15.20;100.00
15074;BME280;7636;63.884;20.308;2023-06-22T02:14:21;64158.34;;;15.27;100.00
15074;BME280;7636;63.884;20.308;2023-06-22T02:16:48;64183.72;;;15.50;100.00
15074;BME280;7636;63.884;20.308;2023-06-22T02:19:15;64188.69;;;15.55;100.00
15074;BME280;7636;63.884;20.308;2023-06-22T02:21:45;64175.66;;;15.48;100.00
15074;BME280;7636;63.884;20.308;2023-06-22T02:24:12;64167.72;;;15.36;100.00
15074;BME280;7636;63.884;20.308;2023-06-22T02:26:38;64178.75;;;15.46;100.00
15074;BME280;7636;63.884;20.308;2023-06-22T02:29:09;64151.84;;;15.24;100.00
15074;BME280;7636;63.884;20.308;2023-06-22T02:31:35;64183.84;;;15.53;100.00
15074;BME280;7636;63.884;20.308;2023-06-22T02:34:02;64223.47;;;15.87;100.00
15074;BME280;7636;63.884;20.308;2023-06-22T02:36:29;64236.25;;;16.01;100.00
15074;BME280;7636;63.884;20.308;2023-06-22T02:38:57;64226.44;;;15.94;100.00
15074;BME280;7636;63.884;20.308;2023-06-22T02:41:27;64239.56;;;16.04;100.00
15074;BME280;7636;63.884;20.308;2023-06-22T02:43:54;64229.53;;;15.92;100.00
15074;BME280;7636;63.884;20.308;2023-06-22T02:46:21;64256.56;;;16.17;100.00
15074;BME280;7636;63.884;20.308;2023-06-22T02:48:48;64273.22;;;16.35;100.00
15074;BME280;7636;63.884;20.308;2023-06-22T02:51:15;64307.03;;;16.68;100.00
15074;BME280;7636;63.884;20.308;2023-06-22T18:04:25;64562.94;;;18.99;100.00
15074;BME280;7636;63.884;20.308;2023-06-22T18:06:52;64557.41;;;18.94;100.00
15074;BME280;7636;63.884;20.308;2023-06-22T18:09:20;64550.31;;;18.90;100.00
15074;BME280;7636;63.884;20.308;2023-06-22T18:11:49;64580.69;;;19.16;100.00
15074;BME280;7636;63.884;20.308;2023-06-22T18:14:18;64545.78;;;18.84;100.00
15074;BME280;7636;63.884;20.308;2023-06-22T18:16:47;64547.56;;;18.88;100.00
15074;BME280;7636;63.884;20.308;2023-06-22T18:19:15;64557.09;;;18.99;100.00
15074;BME280;7636;63.884;20.308;2023-06-22T18:21:45;64556.97;;;18.96;100.00
15074;BME280;7636;63.884;20.308;2023-06-22T18:24:17;64555.88;;;18.95;100.00
15074;BME280;7636;63.884;20.308;2023-06-22T18:26:45;64568.69;;;19.09;100.00
15074;BME280;7636;63.884;20.308;2023-06-22T18:29:12;64576.34;;;19.14;100.00
15074;BME280;7636;63.884;20.308;2023-06-22T18:31:39;64548.56;;;18.86;100.00
15074;BME280;7636;63.884;20.308;2023-06-22T18:34:09;64556.41;;;18.96;100.00
15074;BME280;7636;63.884;20.308;2023-06-22T18:36:46;64550.88;;;18.91;100.00
15074;BME280;7636;63.884;20.308;2023-06-22T18:39:15;64519.13;;;18.57;100.00
15074;BME280;7636;63.884;20.308;2023-06-22T18:41:50;64567.84;;;19.01;100.00
15074;BME280;7636;63.884;20.308;2023-06-22T18:44:18;64566.94;;;19.05;100.00
15074;BME280;7636;63.884;20.308;2023-06-22T18:46:52;64569.16;;;19.07;100.00
15074;BME280;7636;63.884;20.308;2023-06-22T18:49:24;64574.00;;;19.09;100.00
15074;BME280;7636;63.884;20.308;2023-06-22T18:51:56;64565.72;;;19.02;100.00
15074;BME280;7636;63.884;20.308;2023-06-22T18:54:39;64569.16;;;19.07;100.00
15074;BME280;7636;63.884;20.308;2023-06-22T18:57:15;64574.00;;;19.09;100.00
15074;BME280;7636;63.884;20.308;2023-06-22T19:00:04;64569.16;;;19.07;100.00
15074;BME280;7636;63.884;20.308;2023-06-22T19:02:46;64572.00;;;19.13;100.00
15074;BME280;7636;63.884;20.308;2023-06-22T19:05:37;64569.47;;;19.03;100.00
15074;BME280;7636;63.884;20.308;2023-06-22T19:08:06;64560.75;;;18.97;100.00
15074;BME280;7636;63.884;20.308;2023-06-22T19:13:28;64577.34;;;19.13;100.00
15074;BME280;7636;63.884;20.308;2023-06-22T19:16:05;64567.47;;;19.06;100.00
15074;BME280;7636;63.884;20.308;2023-06-22T19:18:36;64583.44;;;19.18;100.00
15074;BME280;7636;63.884;20.308;2023-06-22T19:21:10;64560.84;;;19.00;100.00
15074;BME280;7636;63.884;20.308;2023-06-22T19:23:38;64570.78;;;19.09;100.00
15074;BME280;7636;63.884;20.308;2023-06-22T19:26:11;64581.78;;;19.17;100.00
15074;BME280;7636;63.884;20.308;2023-06-22T19:28:46;64580.22;;;19.18;100.00
15074;BME280;7636;63.884;20.308;2023-06-22T19:31:13;64551.88;;;18.89;100.00
15074;BME280;7636;63.884;20.308;2023-06-22T19:33:40;64592.09;;;19.21;100.00
15074;BME280;7636;63.884;20.308;2023-06-22T19:36:07;64580.69;;;19.16;100.00
15074;BME280;7636;63.884;20.308;2023-06-22T19:38:34;64581.34;;;19.19;100.00
15074;BME280;7636;63.884;20.308;2023-06-22T19:41:01;64576.91;;;19.15;100.00
15074;BME280;7636;63.884;20.308;2023-06-22T19:43:28;64593.19;;;19.22;100.00
15074;BME280;7636;63.884;20.308;2023-06-22T19:45:56;64582.44;;;19.20;100.00
15074;BME280;7636;63.884;20.308;2023-06-22T19:48:28;64574.56;;;19.10;100.00
15074;BME280;7636;63.884;20.308;2023-06-22T19:51:05;64578.00;;;19.16;100.00
15074;BME280;7636;63.884;20.308;2023-06-22T19:53:32;64577.34;;;19.13;100.00
15074;BME280;7636;63.884;20.308;2023-06-22T19:55:59;64560.84;;;19.00;100.00
15074;BME280;7636;63.884;20.308;2023-06-22T19:58:31;64586.84;;;19.24;100.00
15074;BME280;7636;63.884;20.308;2023-06-22T20:00:59;64578.66;;;19.19;100.00
15074;BME280;7636;63.884;20.308;2023-06-22T20:03:31;64554.75;;;18.94;100.00
15074;BME280;7636;63.884;20.308;2023-06-22T20:06:09;64584.53;;;19.19;100.00
15074;BME280;7636;63.884;20.308;2023-06-22T20:08:50;64570.69;;;19.06;100.00
15074;BME280;7636;63.884;20.308;2023-06-22T20:11:25;64572.47;;;19.10;100.00
15074;BME280;7636;63.884;20.308;2023-06-22T20:14:11;64535.94;;;18.77;100.00
15074;BME280;7636;63.884;20.308;2023-06-22T20:17:18;64566.16;;;19.00;100.00
